createdAt,value
2018-02-10T00:01:15.114Z,81.23
2018-02-10T00:03:42.642Z,94.33
2018-02-10T00:06:10.184Z,91.97
2018-02-10T00:08:37.733Z,107.83
2018-02-10T00:11:05.335Z,87.50
2018-02-10T00:13:32.855Z,82.00
2018-02-10T00:16:00.383Z,92.57
2018-02-10T00:18:28.664Z,85.10
2018-02-10T00:20:56.958Z,97.17
2018-02-10T00:23:24.487Z,87.40
2018-02-10T00:25:52.804Z,91.57
2018-02-10T00:28:20.968Z,93.20
2018-02-10T00:30:48.591Z,82.13
2018-02-10T00:33:16.888Z,72.87
2018-02-10T00:35:44.966Z,93.53
2018-02-10T00:38:12.511Z,80.43
2018-02-10T00:40:40.803Z,77.50
2018-02-10T00:43:08.900Z,85.43
2018-02-10T00:45:36.724Z,88.13
2018-02-10T00:48:05.017Z,90.10
2018-02-10T00:50:32.538Z,86.87
2018-02-10T00:53:01.819Z,76.23
2018-02-10T00:55:29.338Z,84.13
2018-02-10T00:58:01.797Z,96.80
2018-02-10T01:00:29.317Z,89.57
2018-02-10T01:02:56.846Z,79.33
2018-02-10T01:05:24.945Z,88.17
2018-02-10T01:07:53.162Z,82.00
2018-02-10T01:10:20.698Z,81.50
2018-02-10T01:12:48.982Z,84.63
2018-02-10T01:15:17.801Z,88.63
2018-02-10T01:17:46.252Z,79.27
2018-02-10T01:20:14.592Z,89.53
2018-02-10T01:22:42.116Z,92.53
2018-02-10T01:25:09.662Z,83.13
2018-02-10T01:27:39.652Z,86.40
2018-02-10T01:30:08.374Z,85.63
2018-02-10T01:32:35.903Z,88.00
2018-02-10T01:35:03.432Z,81.47
2018-02-10T01:37:31.516Z,85.97
2018-02-10T01:40:00.135Z,84.93
2018-02-10T01:42:27.658Z,74.33
2018-02-10T01:44:55.956Z,81.63
2018-02-10T01:47:23.475Z,74.50
2018-02-10T01:49:56.980Z,78.37
2018-02-10T01:52:25.897Z,80.20
2018-02-10T01:54:53.420Z,77.97
2018-02-10T01:57:20.949Z,84.30
2018-02-10T01:59:48.840Z,78.93
2018-02-10T02:02:16.476Z,80.00
2018-02-10T02:04:44.697Z,85.90
2018-02-10T02:07:12.990Z,89.23
2018-02-10T02:09:40.535Z,80.37
2018-02-10T02:12:08.817Z,74.70
2018-02-10T02:14:36.350Z,87.27
2018-02-10T02:17:03.875Z,81.30
2018-02-10T02:19:31.417Z,83.37
2018-02-10T02:21:58.936Z,85.00
2018-02-10T02:24:27.221Z,85.67
2018-02-10T02:26:57.024Z,83.83
2018-02-10T02:29:25.851Z,82.43
2018-02-10T02:31:53.393Z,85.80
2018-02-10T02:34:21.340Z,77.53
2018-02-10T02:36:49.650Z,79.33
2018-02-10T02:39:17.712Z,68.90
2018-02-10T02:44:36.595Z,84.80
2018-02-10T02:47:04.115Z,83.97
2018-02-10T02:49:33.155Z,93.13
2018-02-10T02:54:51.320Z,90.33
2018-02-10T02:57:18.836Z,81.17
2018-02-10T02:59:47.131Z,78.90
2018-02-10T03:02:18.346Z,74.50
2018-02-10T03:04:46.638Z,78.40
2018-02-10T03:07:14.166Z,80.60
2018-02-10T03:09:48.213Z,83.80
2018-02-10T03:12:15.735Z,90.57
2018-02-10T03:14:43.691Z,94.63
2018-02-10T03:17:11.207Z,81.80
2018-02-10T03:19:39.291Z,85.50
2018-02-10T03:22:06.830Z,83.57
2018-02-10T03:24:34.664Z,84.60
2018-02-10T03:27:03.532Z,83.07
2018-02-10T03:29:31.053Z,87.93
2018-02-10T03:31:58.973Z,74.53
2018-02-10T03:34:26.484Z,84.57
2018-02-10T03:36:54.012Z,77.40
2018-02-10T03:39:21.884Z,76.20
2018-02-10T03:41:49.399Z,83.40
2018-02-10T03:44:16.919Z,79.40
2018-02-10T03:46:44.635Z,69.53
2018-02-10T03:49:12.924Z,73.50
2018-02-10T03:51:40.787Z,78.00
2018-02-10T03:54:09.321Z,79.83
2018-02-10T03:56:36.838Z,78.03
2018-02-10T03:59:04.360Z,100.23
2018-02-10T04:01:31.884Z,86.43
2018-02-10T04:03:59.413Z,83.80
2018-02-10T04:06:26.936Z,94.97
2018-02-10T04:08:56.035Z,85.83
2018-02-10T04:11:23.567Z,92.20
2018-02-10T04:13:51.081Z,85.37
2018-02-10T04:16:18.599Z,90.40
2018-02-10T04:18:46.119Z,96.70
2018-02-10T04:21:13.652Z,88.73
2018-02-10T04:23:41.712Z,93.40
2018-02-10T04:26:10.241Z,101.10
2018-02-10T04:28:37.762Z,89.77
2018-02-10T04:31:05.465Z,93.77
2018-02-10T04:33:32.998Z,91.73
2018-02-10T04:36:00.517Z,94.23
2018-02-10T04:38:28.804Z,86.37
2018-02-10T04:40:57.840Z,101.97
2018-02-10T04:43:25.369Z,100.67
2018-02-10T04:45:52.892Z,101.73
2018-02-10T04:48:20.725Z,98.53
2018-02-10T04:50:48.252Z,93.40
2018-02-10T04:53:15.767Z,92.07
2018-02-10T04:55:45.140Z,89.40
2018-02-10T04:58:12.676Z,92.93
2018-02-10T05:00:40.196Z,92.80
2018-02-10T05:03:08.488Z,91.70
2018-02-10T05:05:37.104Z,84.63
2018-02-10T05:08:04.619Z,85.10
2018-02-10T05:10:32.913Z,85.80
2018-02-10T05:13:00.668Z,89.27
2018-02-10T05:15:29.842Z,85.10
2018-02-10T05:17:57.896Z,85.17
2018-02-10T05:20:26.187Z,91.40
2018-02-10T05:22:53.719Z,91.47
2018-02-10T05:25:22.156Z,87.80
2018-02-10T05:27:50.696Z,90.57
2018-02-10T05:30:18.635Z,87.57
2018-02-10T05:32:46.482Z,95.60
2018-02-10T05:35:14.007Z,90.33
2018-02-10T05:37:42.983Z,102.97
2018-02-10T05:40:17.053Z,93.47
2018-02-10T05:42:44.578Z,85.07
2018-02-10T05:45:12.873Z,80.03
2018-02-10T05:47:40.397Z,86.47
2018-02-10T05:50:07.916Z,89.73
2018-02-10T05:52:35.458Z,91.53
2018-02-10T05:55:02.980Z,93.70
2018-02-10T05:57:31.273Z,93.23
2018-02-10T05:59:59.253Z,86.20
2018-02-10T06:02:26.788Z,84.27
2018-02-10T06:04:55.079Z,82.67
2018-02-10T06:07:22.590Z,87.77
2018-02-10T06:09:50.113Z,74.53
2018-02-10T06:12:18.175Z,81.07
2018-02-10T06:14:45.704Z,81.23
2018-02-10T06:17:14.012Z,87.03
2018-02-10T06:19:41.549Z,81.83
2018-02-10T06:22:09.830Z,82.60
2018-02-10T06:24:37.351Z,85.00
2018-02-10T06:27:05.300Z,80.23
2018-02-10T06:29:33.037Z,85.33
2018-02-10T06:32:00.959Z,93.90
2018-02-10T06:34:29.249Z,85.17
2018-02-10T06:36:57.539Z,87.43
2018-02-10T06:39:25.604Z,80.63
2018-02-10T06:41:53.128Z,68.70
2018-02-10T06:44:20.664Z,80.97
2018-02-10T06:46:48.179Z,75.57
2018-02-10T06:49:15.708Z,74.80
2018-02-10T06:51:44.465Z,75.07
2018-02-10T06:54:12.106Z,75.93
2018-02-10T06:56:40.170Z,75.10
2018-02-10T06:59:07.705Z,74.03
2018-02-10T07:01:35.986Z,72.23
2018-02-10T07:04:03.504Z,81.53
2018-02-10T07:06:31.244Z,67.17
2018-02-10T07:08:58.782Z,73.90
2018-02-10T07:11:26.628Z,63.27
2018-02-10T07:13:54.907Z,65.23
2018-02-10T07:16:22.432Z,70.57
2018-02-10T07:18:49.944Z,68.83
2018-02-10T07:21:17.482Z,62.40
2018-02-10T07:23:45.002Z,64.60
2018-02-10T07:26:12.515Z,62.97
2018-02-10T07:28:40.037Z,64.83
2018-02-10T07:31:08.953Z,57.27
2018-02-10T07:33:36.464Z,69.93
2018-02-10T07:36:03.980Z,66.47
2018-02-10T07:38:31.507Z,63.33
2018-02-10T07:40:59.809Z,59.37
2018-02-10T07:43:27.323Z,57.23
2018-02-10T07:45:55.376Z,62.87
2018-02-10T07:48:23.352Z,63.63
2018-02-10T07:50:50.868Z,61.30
2018-02-10T07:53:18.391Z,60.13
2018-02-10T07:55:46.679Z,61.40
2018-02-10T07:58:14.843Z,57.13
2018-02-10T08:00:43.478Z,58.10
2018-02-10T08:03:11.759Z,53.57
2018-02-10T08:05:39.275Z,58.93
2018-02-10T08:08:07.356Z,55.53
2018-02-10T08:10:35.695Z,51.43
2018-02-10T08:13:04.497Z,52.20
2018-02-10T08:18:07.697Z,56.03
2018-02-10T08:20:35.993Z,54.43
2018-02-10T08:23:03.508Z,54.20
2018-02-10T08:25:31.258Z,55.60
2018-02-10T08:27:58.960Z,51.07
2018-02-10T08:30:34.103Z,54.57
2018-02-10T08:33:01.636Z,52.33
2018-02-10T08:35:29.889Z,52.53
2018-02-10T08:37:57.723Z,52.63
2018-02-10T08:40:25.286Z,53.17
2018-02-10T08:42:53.104Z,50.97
2018-02-10T08:45:21.406Z,56.47
2018-02-10T08:47:48.920Z,56.77
2018-02-10T08:50:16.653Z,52.97
2018-02-10T08:52:44.184Z,48.13
2018-02-10T08:55:11.697Z,56.43
2018-02-10T08:57:39.225Z,50.73
2018-02-10T09:00:06.899Z,53.17
2018-02-10T09:02:34.404Z,50.80
2018-02-10T09:05:02.688Z,47.60
2018-02-10T09:07:30.212Z,52.20
2018-02-10T09:09:57.784Z,47.23
2018-02-10T09:12:25.280Z,49.30
2018-02-10T09:14:52.792Z,47.87
2018-02-10T09:17:20.336Z,41.37
2018-02-10T09:19:47.855Z,43.00
2018-02-10T09:22:15.369Z,43.87
2018-02-10T09:24:43.663Z,42.47
2018-02-10T09:27:12.684Z,40.13
2018-02-10T09:29:40.204Z,39.53
2018-02-10T09:32:08.522Z,41.27
2018-02-10T09:34:36.061Z,42.43
2018-02-10T09:37:03.575Z,39.33
2018-02-10T09:39:31.311Z,37.87
2018-02-10T09:41:59.406Z,40.33
2018-02-10T09:44:27.719Z,40.27
2018-02-10T09:46:55.245Z,41.13
2018-02-10T09:49:22.762Z,40.20
2018-02-10T09:51:50.324Z,38.73
2018-02-10T09:54:17.847Z,40.10
2018-02-10T09:56:46.129Z,37.07
2018-02-10T09:59:13.960Z,41.67
2018-02-10T10:01:43.051Z,38.97
2018-02-10T10:04:10.916Z,39.37
2018-02-10T10:06:39.104Z,39.43
2018-02-10T10:09:07.394Z,38.70
2018-02-10T10:11:35.864Z,37.27
2018-02-10T10:14:04.156Z,39.70
2018-02-10T10:16:31.689Z,40.33
2018-02-10T10:18:59.217Z,41.23
2018-02-10T10:21:26.729Z,34.67
2018-02-10T10:23:55.252Z,36.20
2018-02-10T10:26:22.780Z,39.83
2018-02-10T10:28:52.038Z,36.90
2018-02-10T10:31:19.555Z,36.27
2018-02-10T10:33:47.693Z,39.17
2018-02-10T10:36:15.981Z,35.13
2018-02-10T10:38:44.212Z,35.37
2018-02-10T10:41:11.727Z,35.73
2018-02-10T10:43:39.796Z,29.47
2018-02-10T10:46:07.316Z,33.13
2018-02-10T10:48:35.601Z,32.83
2018-02-10T10:51:03.884Z,31.83
2018-02-10T10:53:32.282Z,33.60
2018-02-10T10:56:02.544Z,32.20
2018-02-10T10:58:30.060Z,36.27
2018-02-10T11:00:57.585Z,31.37
2018-02-10T11:03:25.868Z,33.77
2018-02-10T11:05:54.337Z,34.17
2018-02-10T11:08:22.652Z,32.40
2018-02-10T11:10:50.164Z,35.97
2018-02-10T11:13:20.221Z,26.83
2018-02-10T11:15:49.391Z,27.60
2018-02-10T11:18:17.670Z,26.87
2018-02-10T11:20:46.151Z,26.13
2018-02-10T11:23:14.432Z,22.63
2018-02-10T11:25:42.712Z,22.17
2018-02-10T11:28:10.234Z,23.23
2018-02-10T11:30:38.323Z,19.93
2018-02-10T11:33:06.615Z,20.10
2018-02-10T11:35:34.136Z,18.53
2018-02-10T11:38:01.668Z,20.77
2018-02-10T11:40:29.636Z,20.63
2018-02-10T11:42:57.152Z,22.20
2018-02-10T11:45:29.288Z,23.27
2018-02-10T11:47:57.331Z,22.43
2018-02-10T11:50:25.188Z,23.80
2018-02-10T11:52:53.642Z,25.13
2018-02-10T11:55:21.164Z,24.70
2018-02-10T11:57:48.700Z,28.10
2018-02-10T12:00:16.217Z,25.87
2018-02-10T12:02:43.876Z,29.13
2018-02-10T12:05:11.730Z,28.60
2018-02-10T12:07:40.032Z,28.80
2018-02-10T12:10:07.544Z,30.17
2018-02-10T12:12:35.063Z,28.80
2018-02-10T12:15:02.580Z,28.20
2018-02-10T12:17:30.863Z,27.57
2018-02-10T12:19:58.490Z,28.97
2018-02-10T12:22:25.975Z,30.43
2018-02-10T12:24:53.504Z,29.87
2018-02-10T12:27:21.045Z,26.13
2018-02-10T12:29:49.497Z,24.67
2018-02-10T12:32:17.027Z,22.70
2018-02-10T12:34:45.619Z,23.37
2018-02-10T12:37:13.168Z,25.10
2018-02-10T12:39:41.448Z,23.00
2018-02-10T12:42:08.967Z,23.67
2018-02-10T12:44:36.498Z,20.33
2018-02-10T12:47:04.028Z,24.30
2018-02-10T12:49:32.461Z,23.23
2018-02-10T12:52:00.551Z,19.90
2018-02-10T12:54:28.832Z,23.37
2018-02-10T12:56:57.123Z,17.93
2018-02-10T12:59:25.263Z,18.27
2018-02-10T13:01:52.781Z,20.67
2018-02-10T13:04:21.688Z,19.53
2018-02-10T13:06:49.881Z,23.00
2018-02-10T13:09:17.411Z,21.57
2018-02-10T13:11:45.934Z,18.07
2018-02-10T13:14:14.837Z,17.20
2018-02-10T13:16:42.356Z,15.00
2018-02-10T13:19:09.879Z,17.13
2018-02-10T13:21:37.410Z,17.40
2018-02-10T13:24:06.044Z,17.20
2018-02-10T13:26:34.146Z,19.93
2018-02-10T13:29:01.667Z,19.13
2018-02-10T13:31:29.191Z,20.67
2018-02-10T13:33:56.935Z,18.50
2018-02-10T13:36:25.225Z,19.03
2018-02-10T13:38:52.933Z,20.30
2018-02-10T13:41:21.499Z,21.87
2018-02-10T13:43:49.473Z,20.80
2018-02-10T13:46:16.999Z,21.80
2018-02-10T13:48:45.747Z,21.23
2018-02-10T13:51:14.810Z,19.57
2018-02-10T13:53:42.676Z,20.93
2018-02-10T13:56:10.815Z,23.50
2018-02-10T13:58:38.285Z,20.00
2018-02-10T14:01:05.807Z,20.37
2018-02-10T14:03:33.330Z,15.93
2018-02-10T14:06:00.851Z,19.50
2018-02-10T14:08:28.937Z,19.63
2018-02-10T14:10:56.462Z,21.70
2018-02-10T14:13:24.748Z,19.83
2018-02-10T14:15:52.279Z,21.63
2018-02-10T14:18:19.798Z,19.50
2018-02-10T14:20:47.313Z,20.63
2018-02-10T14:23:15.606Z,21.47
2018-02-10T14:25:43.120Z,19.43
2018-02-10T14:28:10.651Z,18.13
2018-02-10T14:30:38.160Z,17.60
2018-02-10T14:33:07.024Z,19.07
2018-02-10T14:35:34.539Z,18.83
2018-02-10T14:38:02.058Z,17.80
2018-02-10T14:40:30.779Z,16.60
2018-02-10T14:42:58.512Z,18.70
2018-02-10T14:45:26.793Z,18.60
2018-02-10T14:47:55.767Z,18.97
2018-02-10T14:50:24.612Z,16.83
2018-02-10T14:52:52.356Z,16.97
2018-02-10T14:55:19.894Z,18.97
2018-02-10T14:57:55.352Z,19.13
2018-02-10T15:00:23.196Z,19.60
2018-02-10T15:02:51.812Z,24.73
2018-02-10T15:05:19.755Z,18.67
2018-02-10T15:07:48.057Z,19.37
2018-02-10T15:10:15.991Z,17.90
2018-02-10T15:12:44.271Z,17.87
2018-02-10T15:15:13.065Z,19.40
2018-02-10T15:17:41.344Z,18.37
2018-02-10T15:20:09.300Z,17.67
2018-02-10T15:22:37.583Z,18.53
2018-02-10T15:25:05.868Z,20.40
2018-02-10T15:27:33.816Z,16.53
2018-02-10T15:30:14.861Z,19.37
2018-02-10T15:32:54.489Z,20.70
2018-02-10T15:35:22.668Z,18.63
2018-02-10T15:37:50.736Z,21.83
2018-02-10T15:40:18.261Z,26.07
2018-02-10T15:42:45.779Z,20.10
2018-02-10T15:45:13.311Z,19.07
2018-02-10T15:47:41.407Z,22.73
2018-02-10T15:50:08.924Z,21.87
2018-02-10T15:52:36.775Z,22.33
2018-02-10T15:55:04.699Z,23.47
2018-02-10T15:57:32.647Z,21.20
2018-02-10T16:00:00.393Z,21.70
2018-02-10T16:02:28.688Z,22.57
2018-02-10T16:04:56.524Z,20.77
2018-02-10T16:07:24.060Z,24.83
2018-02-10T16:09:52.858Z,22.50
2018-02-10T16:12:20.381Z,18.40
2018-02-10T16:14:48.675Z,21.93
2018-02-10T16:17:16.639Z,21.83
2018-02-10T16:19:45.116Z,20.97
2018-02-10T16:22:13.393Z,21.37
2018-02-10T16:24:40.934Z,24.47
2018-02-10T16:27:09.796Z,22.57
2018-02-10T16:29:37.332Z,27.13
2018-02-10T16:32:04.866Z,24.97
2018-02-10T16:34:32.384Z,21.80
2018-02-10T16:36:59.899Z,26.00
2018-02-10T16:39:27.455Z,25.43
2018-02-10T16:41:55.191Z,22.63
2018-02-10T16:44:24.424Z,28.70
2018-02-10T16:46:51.961Z,27.03
2018-02-10T16:49:19.476Z,24.70
2018-02-10T16:51:46.986Z,25.07
2018-02-10T16:54:14.522Z,24.00
2018-02-10T16:56:42.264Z,27.30
2018-02-10T16:59:09.777Z,23.87
2018-02-10T17:01:37.296Z,24.70
2018-02-10T17:04:05.676Z,25.97
2018-02-10T17:06:33.951Z,26.23
2018-02-10T17:09:02.244Z,28.40
2018-02-10T17:11:30.024Z,28.97
2018-02-10T17:13:57.546Z,26.33
2018-02-10T17:16:25.832Z,27.07
2018-02-10T17:18:54.173Z,26.53
2018-02-10T17:21:21.699Z,27.37
2018-02-10T17:23:49.600Z,26.67
2018-02-10T17:26:17.128Z,27.00
2018-02-10T17:28:44.667Z,24.33
2018-02-10T17:31:12.180Z,27.07
2018-02-10T17:33:39.736Z,26.50
2018-02-10T17:36:07.251Z,27.50
2018-02-10T17:38:35.217Z,26.87
2018-02-10T17:41:02.737Z,31.00
2018-02-10T17:43:30.835Z,24.30
2018-02-10T17:46:04.895Z,28.77
2018-02-10T17:48:35.772Z,28.50
2018-02-10T17:51:03.760Z,28.43
2018-02-10T17:53:33.165Z,33.23
2018-02-10T17:56:01.022Z,32.97
2018-02-10T17:58:28.552Z,26.97
2018-02-10T18:00:59.326Z,27.13
2018-02-10T18:03:27.286Z,27.90
2018-02-10T18:05:55.351Z,28.73
2018-02-10T18:08:22.863Z,28.27
2018-02-10T18:10:50.380Z,27.77
2018-02-10T18:13:21.464Z,30.60
2018-02-10T18:15:49.067Z,29.80
2018-02-10T18:18:16.792Z,30.87
2018-02-10T18:20:45.075Z,27.57
2018-02-10T18:23:13.361Z,28.33
2018-02-10T18:25:44.525Z,31.03
2018-02-10T18:28:12.609Z,27.13
2018-02-10T18:30:40.594Z,28.27
2018-02-10T18:33:08.117Z,29.77
2018-02-10T18:35:35.654Z,26.73
2018-02-10T18:38:03.956Z,30.37
2018-02-10T18:40:31.473Z,28.80
2018-02-10T18:42:59.756Z,29.07
2018-02-10T18:45:31.824Z,29.50
2018-02-10T18:48:00.099Z,29.83
2018-02-10T18:50:28.521Z,30.20
2018-02-10T18:52:56.344Z,29.73
2018-02-10T18:55:25.041Z,28.77
2018-02-10T18:57:52.565Z,33.17
2018-02-10T19:00:20.566Z,29.37
2018-02-10T19:02:48.663Z,32.83
2018-02-10T19:05:16.519Z,30.03
2018-02-10T19:07:44.052Z,32.33
2018-02-10T19:10:12.469Z,35.07
2018-02-10T19:12:40.010Z,31.90
2018-02-10T19:15:08.107Z,29.80
2018-02-10T19:17:36.520Z,29.70
2018-02-10T19:20:04.042Z,29.33
2018-02-10T19:22:31.573Z,30.57
2018-02-10T19:24:59.096Z,35.37
2018-02-10T19:30:03.405Z,36.50
2018-02-10T19:32:31.482Z,36.73
2018-02-10T19:35:01.436Z,35.53
2018-02-10T19:37:29.753Z,33.37
2018-02-10T19:39:57.300Z,40.67
2018-02-10T19:42:25.258Z,37.43
2018-02-10T19:44:53.364Z,36.90
2018-02-10T19:47:20.892Z,39.00
2018-02-10T19:49:48.467Z,39.87
2018-02-10T19:52:15.959Z,41.27
2018-02-10T19:54:43.872Z,38.47
2018-02-10T19:57:13.868Z,37.57
2018-02-10T19:59:42.226Z,37.97
2018-02-10T20:02:11.345Z,40.53
2018-02-10T20:04:39.065Z,37.80
2018-02-10T20:09:40.971Z,35.57
2018-02-10T20:12:11.116Z,39.93
2018-02-10T20:14:38.977Z,39.40
2018-02-10T20:17:06.483Z,39.77
2018-02-10T20:19:34.409Z,42.60
2018-02-10T20:22:02.868Z,42.27
2018-02-10T20:24:30.937Z,39.63
2018-02-10T20:26:59.227Z,36.27
2018-02-10T20:29:27.160Z,40.13
2018-02-10T20:31:55.635Z,38.60
2018-02-10T20:34:23.156Z,39.73
2018-02-10T20:36:50.994Z,36.57
2018-02-10T20:39:19.069Z,39.70
2018-02-10T20:41:46.632Z,39.20
2018-02-10T20:44:14.895Z,40.97
2018-02-10T20:46:45.080Z,39.60
2018-02-10T20:49:13.043Z,41.50
2018-02-10T20:51:41.361Z,44.27
2018-02-10T20:54:09.077Z,36.67
2018-02-10T20:56:36.693Z,41.57
2018-02-10T20:59:04.563Z,37.80
2018-02-10T21:01:34.644Z,40.33
2018-02-10T21:04:02.935Z,40.40
2018-02-10T21:06:33.304Z,45.03
2018-02-10T21:09:00.836Z,40.13
2018-02-10T21:11:28.613Z,37.97
2018-02-10T21:13:56.159Z,46.50
2018-02-10T21:16:23.680Z,41.07
2018-02-10T21:18:51.963Z,40.33
2018-02-10T21:21:26.800Z,39.70
2018-02-10T21:23:55.086Z,40.47
2018-02-10T21:26:22.905Z,41.10
2018-02-10T21:28:50.419Z,42.33
2018-02-10T21:31:17.947Z,42.73
2018-02-10T21:33:46.260Z,38.90
2018-02-10T21:36:16.288Z,44.60
2018-02-10T21:38:43.928Z,40.47
2018-02-10T21:41:11.824Z,45.13
2018-02-10T21:43:39.767Z,43.87
2018-02-10T21:46:07.292Z,43.83
2018-02-10T21:48:35.604Z,41.17
2018-02-10T21:51:04.024Z,44.93
2018-02-10T21:53:32.125Z,41.87
2018-02-10T21:56:00.425Z,41.23
2018-02-10T21:58:27.985Z,40.83
2018-02-10T22:00:56.035Z,40.63
2018-02-10T22:03:23.978Z,38.03
2018-02-10T22:05:52.260Z,35.60
2018-02-10T22:08:21.121Z,30.13
2018-02-10T22:10:48.639Z,27.20
2018-02-10T22:13:16.153Z,27.07
2018-02-10T22:15:43.692Z,23.13
2018-02-10T22:18:11.210Z,30.07
2018-02-10T22:20:39.263Z,23.37
2018-02-10T22:23:08.020Z,26.63
2018-02-10T22:25:35.996Z,31.27
2018-02-10T22:28:03.533Z,28.43
2018-02-10T22:30:31.056Z,30.50
2018-02-10T22:32:59.013Z,27.73
2018-02-10T22:35:26.530Z,31.87
2018-02-10T22:37:54.380Z,33.27
2018-02-10T22:40:22.672Z,33.97
2018-02-10T22:42:50.191Z,35.10
2018-02-10T22:45:18.405Z,33.27
2018-02-10T22:47:45.930Z,35.20
2018-02-10T22:50:13.475Z,31.83
2018-02-10T22:52:41.200Z,34.27
2018-02-10T22:55:10.315Z,30.93
2018-02-10T22:57:37.844Z,36.53
2018-02-10T23:00:05.913Z,28.73
2018-02-10T23:02:34.203Z,29.03
2018-02-10T23:05:02.484Z,31.80
2018-02-10T23:07:31.827Z,31.13
2018-02-10T23:09:59.537Z,33.93
2018-02-10T23:12:28.363Z,36.27
2018-02-10T23:14:56.303Z,28.83
2018-02-10T23:17:27.512Z,33.00
2018-02-10T23:19:55.024Z,31.93
2018-02-10T23:22:23.059Z,34.23
2018-02-10T23:24:52.053Z,35.23
2018-02-10T23:27:20.336Z,32.10
2018-02-10T23:29:48.615Z,32.27
2018-02-10T23:32:16.900Z,27.67
2018-02-10T23:34:44.740Z,29.07
2018-02-10T23:37:13.033Z,24.97
2018-02-10T23:39:41.332Z,31.23
2018-02-10T23:42:08.968Z,23.57
2018-02-10T23:44:37.952Z,22.97
2018-02-10T23:47:06.664Z,21.13
2018-02-10T23:49:34.384Z,27.03
2018-02-10T23:52:01.905Z,25.87
2018-02-10T23:54:29.449Z,24.23
2018-02-10T23:56:56.979Z,23.47
2018-02-10T23:59:25.254Z,22.77
